sensor_id;sensor_type;location;lat;lon;timestamp;P1;P2;P0
47709;PMS7003;33473;51.640;5.892;2022-07-23T00:12:09;4.21;6.99;5.35
47709;PMS7003;33473;51.640;5.892;2022-07-23T00:25:29;5.41;7.75;5.57
47709;PMS7003;33473;51.640;5.892;2022-07-23T00:38:50;5.05;7.75;5.9
47709;PMS7003;33473;51.640;5.892;2022-07-23T00:52:10;4.69;7.42;6.22
47709;PMS7003;33473;51.640;5.892;2022-07-23T01:05:31;4.69;7.42;5.57
47709;PMS7003;33473;51.640;5.892;2022-07-23T01:18:53;3.6;6.44;5.02
47709;PMS7003;33473;51.640;5.892;2022-07-23T01:32:12;4.57;7.42;5.68
47709;PMS7003;33473;51.640;5.892;2022-07-23T01:45:32;6.97;7.97;6.11
47709;PMS7003;33473;51.640;5.892;2022-07-23T01:58:52;27.01;18.32;11.56
47709;PMS7003;33473;51.640;5.892;2022-07-23T02:12:13;17.41;16.14;10.36
47709;PMS7003;33473;51.640;5.892;2022-07-23T02:25:33;9.37;11.45;7.86
47709;PMS7003;33473;51.640;5.892;2022-07-23T02:38:53;8.53;9.82;7.09
47709;PMS7003;33473;51.640;5.892;2022-07-23T02:52:12;12.01;12.76;8.29
47709;PMS7003;33473;51.640;5.892;2022-07-23T03:05:32;7.09;9.71;6.66
47709;PMS7003;33473;51.640;5.892;2022-07-23T03:18:54;4.57;7.2;5.57
47709;PMS7003;33473;51.640;5.892;2022-07-23T03:32:15;7.45;8.51;6.33
47709;PMS7003;33473;51.640;5.892;2022-07-23T03:45:35;6.61;9.06;6.66
47709;PMS7003;33473;51.640;5.892;2022-07-23T03:58:55;6.61;7.86;5.79
47709;PMS7003;33473;51.640;5.892;2022-07-23T04:12:16;7.81;10.36;7.64
47709;PMS7003;33473;51.640;5.892;2022-07-23T04:25:37;10.33;11.78;8.73
47709;PMS7003;33473;51.640;5.892;2022-07-23T04:38:59;9.49;11.78;9.27
47709;PMS7003;33473;51.640;5.892;2022-07-23T04:52:19;12.01;12.98;9.38
47709;PMS7003;33473;51.640;5.892;2022-07-23T05:05:41;11.65;13.2;9.71
47709;PMS7003;33473;51.640;5.892;2022-07-23T05:19:00;15.25;16.8;11.45
47709;PMS7003;33473;51.640;5.892;2022-07-23T05:32:20;14.77;16.25;11.45
47709;PMS7003;33473;51.640;5.892;2022-07-23T05:45:41;15.25;16.69;11.89
47709;PMS7003;33473;51.640;5.892;2022-07-23T05:59:01;14.17;16.03;11.35
47709;PMS7003;33473;51.640;5.892;2022-07-23T06:12:21;13.09;14.94;10.47
47709;PMS7003;33473;51.640;5.892;2022-07-23T06:25:43;11.65;13.53;10.04
47709;PMS7003;33473;51.640;5.892;2022-07-23T06:39:03;10.45;12.54;9.06
47709;PMS7003;33473;51.640;5.892;2022-07-23T06:52:23;8.65;11.13;7.86
47709;PMS7003;33473;51.640;5.892;2022-07-23T07:05:43;6.25;8.4;5.79
47709;PMS7003;33473;51.640;5.892;2022-07-23T07:19:02;5.53;8.18;5.9
47709;PMS7003;33473;51.640;5.892;2022-07-23T07:32:22;5.05;7.53;5.46
47709;PMS7003;33473;51.640;5.892;2022-07-23T07:45:42;3.97;6.66;4.8
47709;PMS7003;33473;51.640;5.892;2022-07-23T07:59:02;3.24;5.35;3.93
47709;PMS7003;33473;51.640;5.892;2022-07-23T08:12:22;2.16;5.24;4.04
47709;PMS7003;33473;51.640;5.892;2022-07-23T08:25:42;2.76;5.13;4.04
47709;PMS7003;33473;51.640;5.892;2022-07-23T08:39:03;1.56;4.59;3.71
47709;PMS7003;33473;51.640;5.892;2022-07-23T08:52:23;2.16;4.59;3.5
47709;PMS7003;33473;51.640;5.892;2022-07-23T09:05:43;2.4;4.59;3.82
47709;PMS7003;33473;51.640;5.892;2022-07-23T09:19:04;3.0;5.35;4.15
47709;PMS7003;33473;51.640;5.892;2022-07-23T09:32:24;2.28;4.8;3.61
47709;PMS7003;33473;51.640;5.892;2022-07-23T09:45:44;1.44;4.59;3.39
47709;PMS7003;33473;51.640;5.892;2022-07-23T09:59:03;2.04;4.26;3.28
47709;PMS7003;33473;51.640;5.892;2022-07-23T10:12:23;1.68;4.7;3.5
47709;PMS7003;33473;51.640;5.892;2022-07-23T10:25:43;2.16;5.13;3.82
47709;PMS7003;33473;51.640;5.892;2022-07-23T10:39:03;2.04;4.8;3.61
47709;PMS7003;33473;51.640;5.892;2022-07-23T10:52:24;2.28;5.02;4.04
47709;PMS7003;33473;51.640;5.892;2022-07-23T11:05:45;0.84;3.82;2.84
47709;PMS7003;33473;51.640;5.892;2022-07-23T11:19:05;2.64;4.8;3.61
47709;PMS7003;33473;51.640;5.892;2022-07-23T11:32:26;2.88;4.91;3.71
47709;PMS7003;33473;51.640;5.892;2022-07-23T11:45:47;1.8;4.91;3.61
47709;PMS7003;33473;51.640;5.892;2022-07-23T11:59:09;0.36;3.5;2.84
47709;PMS7003;33473;51.640;5.892;2022-07-23T12:12:29;0.6;3.5;2.84
47709;PMS7003;33473;51.640;5.892;2022-07-23T12:25:49;0.48;3.71;2.73
47709;PMS7003;33473;51.640;5.892;2022-07-23T12:39:08;0.12;3.39;2.84
47709;PMS7003;33473;51.640;5.892;2022-07-23T12:52:28;1.8;4.8;3.71
47709;PMS7003;33473;51.640;5.892;2022-07-23T13:05:48;1.92;3.82;2.84
47709;PMS7003;33473;51.640;5.892;2022-07-23T13:19:08;0.96;3.93;3.17
47709;PMS7003;33473;51.640;5.892;2022-07-23T13:32:27;1.68;3.93;3.28
47709;PMS7003;33473;51.640;5.892;2022-07-23T13:45:47;1.08;4.15;3.39
47709;PMS7003;33473;51.640;5.892;2022-07-23T13:59:07;1.44;4.48;3.28
47709;PMS7003;33473;51.640;5.892;2022-07-23T14:12:27;1.44;4.48;3.39
47709;PMS7003;33473;51.640;5.892;2022-07-23T14:25:48;0.6;3.82;3.06
47709;PMS7003;33473;51.640;5.892;2022-07-23T14:39:08;1.2;4.37;3.5
47709;PMS7003;33473;51.640;5.892;2022-07-23T14:52:29;1.08;4.15;3.39
47709;PMS7003;33473;51.640;5.892;2022-07-23T15:05:50;1.68;4.7;3.39
47709;PMS7003;33473;51.640;5.892;2022-07-23T15:19:10;3.0;5.35;4.04
47709;PMS7003;33473;51.640;5.892;2022-07-23T15:32:31;1.68;4.8;3.71
47709;PMS7003;33473;51.640;5.892;2022-07-23T15:45:53;1.8;4.8;3.61
47709;PMS7003;33473;51.640;5.892;2022-07-23T15:59:13;1.44;4.59;3.61
47709;PMS7003;33473;51.640;5.892;2022-07-23T16:12:34;1.8;4.8;3.71
47709;PMS7003;33473;51.640;5.892;2022-07-23T16:25:54;1.8;4.8;3.61
47709;PMS7003;33473;51.640;5.892;2022-07-23T16:39:14;1.92;5.02;3.82
47709;PMS7003;33473;51.640;5.892;2022-07-23T16:52:34;3.24;5.13;3.93
47709;PMS7003;33473;51.640;5.892;2022-07-23T17:05:53;4.57;6.33;4.7
47709;PMS7003;33473;51.640;5.892;2022-07-23T17:19:13;3.6;6.44;4.59
47709;PMS7003;33473;51.640;5.892;2022-07-23T17:32:33;3.6;5.57;4.37
47709;PMS7003;33473;51.640;5.892;2022-07-23T17:45:54;2.16;5.02;3.82
47709;PMS7003;33473;51.640;5.892;2022-07-23T17:59:15;1.92;4.8;3.82
47709;PMS7003;33473;51.640;5.892;2022-07-23T18:12:37;3.73;5.79;4.15
47709;PMS7003;33473;51.640;5.892;2022-07-23T18:25:56;2.28;5.13;3.93
47709;PMS7003;33473;51.640;5.892;2022-07-23T18:39:16;2.28;5.02;4.15
47709;PMS7003;33473;51.640;5.892;2022-07-23T18:52:36;2.88;5.02;4.04
47709;PMS7003;33473;51.640;5.892;2022-07-23T19:05:56;2.28;5.35;4.15
47709;PMS7003;33473;51.640;5.892;2022-07-23T19:19:15;2.88;5.68;4.37
47709;PMS7003;33473;51.640;5.892;2022-07-23T19:32:35;2.52;5.46;4.15
47709;PMS7003;33473;51.640;5.892;2022-07-23T19:45:55;4.45;7.09;5.35
47709;PMS7003;33473;51.640;5.892;2022-07-23T19:59:17;4.57;7.31;5.46
47709;PMS7003;33473;51.640;5.892;2022-07-23T20:12:37;5.05;6.66;5.02
47709;PMS7003;33473;51.640;5.892;2022-07-23T20:25:58;4.45;6.44;4.8
47709;PMS7003;33473;51.640;5.892;2022-07-23T20:39:20;4.69;7.2;5.57
47709;PMS7003;33473;51.640;5.892;2022-07-23T20:52:41;6.25;8.84;6.66
47709;PMS7003;33473;51.640;5.892;2022-07-23T21:06:01;8.41;9.49;6.55
47709;PMS7003;33473;51.640;5.892;2022-07-23T21:19:21;8.05;10.36;7.53
47709;PMS7003;33473;51.640;5.892;2022-07-23T21:32:41;13.21;11.56;8.4
47709;PMS7003;33473;51.640;5.892;2022-07-23T21:46:01;9.25;11.45;8.18
47709;PMS7003;33473;51.640;5.892;2022-07-23T21:59:21;10.21;11.67;8.62
47709;PMS7003;33473;51.640;5.892;2022-07-23T22:12:41;10.45;11.67;8.51
47709;PMS7003;33473;51.640;5.892;2022-07-23T22:26:01;10.33;12.54;9.38
47709;PMS7003;33473;51.640;5.892;2022-07-23T22:39:21;10.93;12.98;9.38
47709;PMS7003;33473;51.640;5.892;2022-07-23T22:52:41;12.49;13.53;9.71
47709;PMS7003;33473;51.640;5.892;2022-07-23T23:06:02;13.09;14.29;9.93
47709;PMS7003;33473;51.640;5.892;2022-07-23T23:19:24;12.49;14.51;10.26
47709;PMS7003;33473;51.640;5.892;2022-07-23T23:32:44;13.21;15.27;10.47
47709;PMS7003;33473;51.640;5.892;2022-07-23T23:46:03;13.93;14.83;10.47
47709;PMS7003;33473;51.640;5.892;2022-07-23T23:59:25;16.21;16.03;11.35
